Klossner, Minnesota
Current Conditions -  °F | °C
As of 10:14 AM on Sunday 23 Nov 2014 (Local Time) from KULM Reporting Station
Clear Clear  
Wind Chill: 45°   Ceiling: Unl
Heat Index: 45°   Visibility: 10mi
Dew Point: 45°   Wind: 3mph
Humidity: 100%   Direction: 240°WSW
Pressure: 29.46"   Gusts: NA
Location:  44.2563°N, 94.471°W
Report Text: KULM 231614Z AUTO 24003KT 10SM CLR 07/07 A2946 RMK AO2
Loading
Personal Weather Stations






























Interactive Weather Map New forecast layout! Learn more

10-Day Weather Forecast

Advertisements
Track Severe Weather on mobile